Terminal Aerodrome Forecast
Issued by NWS King Salmon, AK

Home | Current Version | Previous Version | Text Only | Print | Product List | Glossary On
Versions: 1 2 3 4 5 6 7 8 9 10 11 12 13 14 15 16 17 18 19 20 21 22 23
672
FTAK31 PANC 230522
TAFAKN
TAF
PAKN 230522Z 2306/2406 16004KT P6SM -SHSN SCT015 BKN060
      TEMPO 2306/2310 2SM -SHSN BKN015 BKN060
     FM240000 18007KT 4SM -SN BR BKN025=

USA.gov is the U.S. government's official web portal to all federal, state and local government web resources and services.